Brooklyn Park, MN

8:15 PM CST on November 26, 2014 (GMT -0600)
Brooklyn Park, Solar Energy Data | Change Station
CLOSE
Current Station
Personal Weather Station
Location: Brooklyn Park, MN
Elevation: 870 ft
Nearby Weather Stations

Elev 870 ft 45.13 °N, 93.31 °W | Updated 60 seconds ago

Overcast
Overcast
19.3 °F
Feels Like 12 °F
N
5.0
Wind Variable Wind from North
Gusts 13.0 mph

Today
High -- | Low -- °F
--% Chance of Precip.
Yesterday
High -- | Low -- °F
Precip. -- in
7:25 AM 4:35 PM
Waxing Crescent, 24% visible
Pressure 30.36 in
Visibility 10.0 miles
Clouds Few 7000 ft
Overcast 11000 ft
Windchill 12 °F
Dew Point 11 °F
Humidity 70%
Rainfall 0.00 in
Snow Depth Not available.
UV 0.0 out of 12
Pollen .10 out of 12
Air Quality Not available.
Flu Activity Not available.
METAR KMIC 270153Z 32009KT 10SM FEW070 OVC110 M06/M12 A3031 RMK AO2 SLP279 T10611117

More Conditions Fewer Conditions

Pressure 30.36 in
Visibility 10.0 miles
Clouds Few 7000 ft
Overcast 11000 ft
Windchill 12 °F
Dew Point 11 °F
Humidity 70%
Rainfall 0.00 in
Snow Depth Not available.
UV 0.0 out of 12
Pollen .10 out of 12
Air Quality Not available.
Flu Activity Not available.
METAR KMIC 270153Z 32009KT 10SM FEW070 OVC110 M06/M12 A3031 RMK AO2 SLP279 T10611117

More Conditions Fewer Conditions

10-Day Weather Forecast

Almanac

Astronomy

Nov. 26, 2014 Rise Set
Actual Time
Civil Twilight
Nautical Twilight
Astronomical Twilight
Moon
Length of Visible Light
Length of Day
Tomorrow will be .
, % of the Moon is Illuminated

Today's Extremes

State Highs State Lows

Community

WunderPhotos

Upload Photos

1,773,943 photos uploaded!

WunderBlogs® & News

Nearby

Air Quality

  Air Quality AQ Index Pollutant
Not available.

Snow Depth

Station Depth Elevation

Earthquake Activity

City Distance Mag. Time & Date
Minimum magnitude displayed is 2.5.

Coastal Water Temperatures

Place Temperature

Nearby Weather Stations